Hors Challenge

Les Boucles Ardennaises - La Roche-En-Ardenne (42.21 km)

samedi 05 juin 2021

Le Classement original se trouve sur : http://www.chronorace.be
 
LES BOUCLES ARDENNAISES - LA ROCHE-EN-ARDENNE
DISTANCE : 42.21 km
samedi 05 juin 2021
 
Place Dos NOM Catégorie Pl/cat temps temps/km Vitesse
1 48 BOGAERTS STEVEN V1 1 03:26:24 04:53 12.27
2 69 CAMUS RENAUD V1 2 03:27:20 04:55 12.21
3 313 PERRIN RÉMI V1 3 03:30:12 04:59 12.05
4 197 JOYE MAARTEN V1 4 03:31:19 05:00 11.98
5 241 KEUPPENS BENNY V1 5 03:32:36 05:02 11.91
6 181 HENDRICKX JURGEN SH 1 03:35:29 05:06 11.75
7 49 BONNET JONATHAN SH 2 03:35:48 05:07 11.74
8 151 FABRE FLORIAN SH 3 03:35:54 05:07 11.73
9 398 VINCENT ADRIEN SH 4 03:36:08 05:07 11.72
10 96 DE CLERCK JAN SH 5 03:37:17 05:09 11.66
11 164 GEORIS SÉBASTIEN V1 6 03:38:58 05:11 11.57
12 139 DU BOIS PIERRE-YVES SH 6 03:41:22 05:15 11.44
13 348 SCHUSTER NICOLAS V1 7 03:42:53 05:17 11.36
14 266 LENAERTS JEAN V1 8 03:43:15 05:17 11.34
15 293 MEIJNAERT TONI SH 7 03:47:31 05:23 11.13
16 353 SOARES FERNANDO V1 9 03:48:20 05:25 11.09
17 61 BRUNEEL PHILIPPE V1 10 03:48:20 05:25 11.09
18 327 PRAILE THOMAS SH 8 03:51:39 05:29 10.93
19 381 VAN DER WERFF FRITS SH 9 03:52:33 05:31 10.89
20 20 NÈVE GEOFFREY SH 10 03:54:37 05:34 10.79
21 263 LEMAIRE SIMON SH 11 03:54:54 05:34 10.78
22 346 SCHAERS LAURENT xxx   03:56:42 05:36 10.70
23 285 MARIAGE JÉRÔME SH 12 03:57:01 05:37 10.69
24 163 GEORGES BENOIT V1 11 03:58:14 05:39 10.63
25 383 VAN RANST WIEBE SH 13 03:58:36 05:39 10.61
26 335 ROBERT YVES V2 1 04:00:24 05:42 10.53
27 288 MASSOZ CEDRIC V1 12 04:00:57 05:43 10.51
28 193 JEUNEHOMME DENIS V1 13 04:02:16 05:44 10.45
29 105 DECHAMPS RAOUL V1 14 04:02:18 05:44 10.45
30 176 GUILLAUME MATHIAS SH 14 04:03:26 05:46 10.40
31 36 BAYENS PAUL SH 15 04:04:17 05:47 10.37
32 62 BRUYERE STEVE SH 16 04:06:31 05:50 10.27
33 63 BUYDENS GUILLAUME SH 17 04:07:00 05:51 10.25
34 66 BYIERS BRUCE V1 15 04:08:07 05:53 10.21
35 330 HENRY VALENTIN SH 18 04:08:46 05:54 10.18
36 109 DEJOIE PIERRE SH 19 04:09:24 05:55 10.15
37 8 ORTILLON EMMANUEL V1 16 04:09:40 05:55 10.14
38 200 KARIUS TIM SH 20 04:10:20 05:56 10.12
39 389 VEIGAS TONI SH 21 04:10:29 05:56 10.11
40 271 POISSONNET JULIEN xxx   04:10:43 05:56 10.10
41 107 DEHOTTAY NICOLAS SH 22 04:10:49 05:57 10.10
42 143 DULON OLIVIER V2 2 04:12:11 05:58 10.04
43 81 COLLARD JULIEN SH 23 04:13:29 06:00 9.99
44 322 PLICHARD CHRISTOPHE V1 17 04:13:49 06:01 9.98
45 382 VAN GASSE ETIENNE SH 24 04:14:19 06:02 9.96
46 252 BONATO BENOIT V2 3 04:14:54 06:02 9.94
47 42 BERTRAND MATTHIEU V1 18 04:15:17 06:03 9.92
48 350 BRANCART LAURENT V1 19 04:16:17 06:04 9.88
49 130 DEWANDELEER BART SH 25 04:17:15 06:06 9.84
50 11 GOFFLOT FRÉDÉRIC V2 4 04:17:34 06:06 9.83
51 284 MARCHAND STEPHANE V1 20 04:19:33 06:09 9.76
52 113 DELESENNE NICOLAS SH 26 04:19:58 06:10 9.74
53 253 LAMOUR VIRGINIE SD 1 04:20:06 06:10 9.74
54 137 DIJKSTRA BRIAN SH 27 04:20:17 06:10 9.73
55 126 DESCAMPS OLIVIER V2 5 04:20:35 06:10 9.72
56 323 POCHET COLIN SH 28 04:21:49 06:12 9.67
57 82 COLLETTE THOMAS SH 29 04:22:51 06:14 9.63
58 43 BEULQUE NICO V1 21 04:25:10 06:17 9.55
59 189 IVANOV EVGENY SH 30 04:25:28 06:17 9.54
60 374 VAN CUYCK TOM SH 31 04:25:59 06:18 9.52
61 339 ROSSION ARNAUD SH 32 04:26:22 06:19 9.51
62 390 VERBRUGGEN YVES SH 33 04:26:43 06:19 9.50
63 299 MORHET MASON SH 34 04:26:55 06:19 9.49
64 85 CORBESIER LAURENT V2 6 04:27:50 06:21 9.46
65 162 GAIGNEUR DIMITRI V1 22 04:28:22 06:21 9.44
66 174 GRESTEAU BENJAMIN SH 35 04:29:05 06:23 9.41
67 314 PHILIPPIN GREGORY V1 23 04:29:25 06:23 9.40
68 291 MASSON VINCENT V1 24 04:29:50 06:24 9.39
69 161 FRANÇOIS THIBAUT SH 36 04:30:03 06:24 9.38
70 72 CHARLET ERIC V1 25 04:32:01 06:27 9.31
71 399 VLEUGELS FRÉDÉRIC V1 26 04:32:07 06:27 9.31
72 345 SCHACHT WIM V2 7 04:32:35 06:27 9.29
73 158 FOSSION CHARLTON SH 37 04:32:37 06:28 9.29
74 106 DECROUBELE LIES A1 1 04:32:47 06:28 9.28
75 131 DEWYN THOMAS SH 38 04:32:48 06:28 9.28
76 15 GILLET THOMAS V1 27 04:33:07 06:28 9.27
77 308 OGER STEPHAN V1 28 04:33:26 06:29 9.26
78 372 URBAIN BAUDOUIN V2 8 04:33:40 06:29 9.25
79 97 DE COCK MICHAEL V1 29 04:34:15 06:30 9.23
80 110 DELBROUCK THOMAS SH 39 04:34:26 06:30 9.23
81 1 SIEBENBOUR MICHEL V2 9 04:34:29 06:30 9.23
82 273 LIBERSENS THOMAS SH 40 04:34:33 06:30 9.22
83 88 COURARD FABIAN V2 10 04:35:09 06:31 9.20
84 144 DUMONG FRÉDÉRIC V2 11 04:35:18 06:31 9.20
85 136 DIEUDONNE MICHEL V2 12 04:36:02 06:32 9.17
86 180 HELLEBAUT FRANÇOIS-XAVIER SH 41 04:36:02 06:32 9.17
87 104 DE WASSEIGE DIDIER SH 42 04:36:48 06:33 9.15
88 83 COLLIN PIERRE V2 13 04:37:23 06:34 9.13
89 33 AUBECQ BERTRAND SH 43 04:38:31 06:36 9.09
90 64 BUYS BENJAMIN SH 44 04:39:26 06:37 9.06
91 245 KOECK GERALD SH 45 04:39:35 06:37 9.06
92 134 DHOLANDER GREG SH 46 04:41:15 06:40 9.00
93 297 MIÉVIS KEVIN SH 47 04:41:25 06:40 9.00
94 375 VAN DE LANGENBERG ROB V1 30 04:41:29 06:40 9.00
95 333 RENARD CHRISTOPHE SH 48 04:41:58 06:41 8.98
96 198 KAGIARAS NIKOLAOS SH 49 04:43:04 06:42 8.95
97 116 DELVAL JÉRÔME V1 31 04:43:15 06:43 8.94
98 165 GILLET CYRIL SH 50 04:44:14 06:44 8.91
99 173 GRESSE DANIEL V2 14 04:44:31 06:44 8.90
100 331 PUOZZO NATHAN SH 51 04:44:41 06:45 8.90
101 282 MALEMPRÉ DAVID V1 32 04:45:04 06:45 8.88
102 267 LENOIR ANDY V1 33 04:46:35 06:47 8.84
103 324 PONCELET ALEXIS SH 52 04:46:43 06:48 8.83
104 384 VAN THUYNE DIRK V2 15 04:47:21 06:48 8.81
105 19 THIBAUT BAPTISTE SH 53 04:47:30 06:49 8.81
106 244 KLEISCH OLIVIER V2 16 04:48:04 06:49 8.79
107 99 DE MEYER BEN V1 34 04:48:17 06:50 8.78
108 347 SCHULPEN NATHAN SH 54 04:49:06 06:51 8.76
109 5 GILLET PATRICK V2 17 04:50:58 06:54 8.70
110 341 ROUSSEAUX SOPHIE A1 2 04:52:26 06:56 8.66
111 295 BIHAIN BERNARD V2 18 04:52:58 06:56 8.64
112 118 DELWARTE LAURENT V1 35 04:55:33 07:00 8.57
113 21 HOUSSIÈRE ANTOINE xxx   04:55:56 07:01 8.56
114 157 FORTHOMME MICHEL V2 19 04:56:18 07:01 8.55
115 294 MERCIER STEVE SH 55 04:56:33 07:02 8.54
116 277 MAES CHRISTOPH V1 36 04:56:57 07:02 8.53
117 378 VAN DEN HEUVEL RONALD V1 37 04:57:03 07:02 8.53
118 132 DEXTERS JONATHAN SH 56 04:57:47 07:03 8.50
119 342 ROZEL GAUTHIER V1 38 04:57:53 07:03 8.50
120 121 DENDAL DIDIER V2 20 04:58:23 07:04 8.49
121 46 BODSON VÉRONIQUE A1 3 04:58:26 07:04 8.49
122 89 COURTOY HÉLÈNE SD 2 04:58:26 07:04 8.49
123 187 HUSSIN LOUIS SH 57 04:58:27 07:04 8.49
124 129 DEVOS CHRISTOPHER SH 58 04:58:57 07:05 8.47
125 122 DENY FLORENCE A1 4 04:59:05 07:05 8.47
126 283 MARCHAL KEVIN V1 39 04:59:12 07:05 8.46
127 305 WUILBERCQ AMELIE xxx   04:59:20 07:06 8.46
128 74 CHODY CHRISTIAN V2 21 04:59:54 07:06 8.44
129 393 VERHAMME KEVIN SH 59 05:00:19 07:07 8.43
130 117 DELVAUX JEAN-FRANÇOIS SH 60 05:00:53 07:08 8.42
131 192 NICOLAS OLIVIER xxx   05:01:18 07:08 8.41
132 274 LINET JÉRÔME V1 40 05:01:24 07:08 8.40
133 28 AGLAVE ANTOINE V1 41 05:01:36 07:09 8.40
134 281 MALACHE CÉDRIC V1 42 05:02:03 07:09 8.38
135 392 VEREYCKEN DAVY V1 43 05:03:45 07:12 8.34
136 98 DE MAESSCHALCK ERIC V1 44 05:03:54 07:12 8.33
137 101 DE PAGE TAZ SH 61 05:03:56 07:12 8.33
138 14 MONCOUSIN FABIEN V1 45 05:04:06 07:12 8.33
139 12 PRESER FREDERIC V1 46 05:07:13 07:17 8.24
140 359 STEVENS IVO V1 47 05:07:36 07:17 8.23
141 196 JORDAN MAQUET SH 62 05:08:06 07:18 8.22
142 195 JOIRIS JOSEPH V1 48 05:10:38 07:22 8.15
143 352 SIWEK JEAN-PHILIPPE V1 49 05:11:04 07:22 8.14
144 371 TRUILLET DOMINIQUE V1 50 05:11:28 07:23 8.13
145 86 COTTIN POL-HENRI SH 63 05:11:39 07:23 8.13
146 167 GINES NICOLAS V1 51 05:12:01 07:24 8.12
147 279 MAES ROMAIN SH 64 05:12:32 07:24 8.10
148 114 DELFOSSE OLIVIER V1 52 05:12:50 07:25 8.10
149 249 LABIJAK RICHARD SH 65 05:13:46 07:26 8.07
150 332 QUEYLA LAURENT V2 22 05:14:31 07:27 8.05
151 268 LEONI MURIEL A1 5 05:16:31 07:30 8.00
152 351 SIKKERS WILLEM V1 53 05:16:47 07:30 7.99
153 127 DESMYTER CHRISTOPHE V1 54 05:17:23 07:31 7.98
154 391 VERELLEN FRANKY V1 55 05:17:41 07:32 7.97
155 80 COLARD ANDREW V1 56 05:18:31 07:33 7.95
156 91 CUISENAIRE KATHLEEN A1 6 05:23:25 07:40 7.83
157 191 JAUMOTTE FABIEN SH 66 05:25:38 07:43 7.78
158 338 LEHANNE ERIC V1 57 05:26:13 07:44 7.76
159 300 MOTTE DIT FALISSE ALEXIA SD 3 05:26:16 07:44 7.76
160 153 FENEUIL BRIEUC SH 67 05:26:49 07:45 7.75
161 251 LAFOSSE JONATHAN SH 68 05:27:08 07:45 7.74
162 152 FANCHINI NICOLAS SH 69 05:28:43 07:47 7.70
163 40 BRAL SEVERINE A1 7 05:31:10 07:51 7.65
164 336 ROCCARO GIUSEPPE V2 23 05:31:10 07:51 7.65
165 355 SPANNEUT SÉBASTIEN V2 24 05:31:10 07:51 7.65
166 3 ROUVROY CHARLES V2 25 05:31:43 07:52 7.63
167 93 CUVELIER SERGE V3 1 05:32:10 07:52 7.62
168 32 ANSELMI KARINE SD 4 05:34:27 07:55 7.57
169 70 CARBONNIER LAURENT V1 58 05:34:38 07:56 7.57
170 60 BROUX TOM SH 70 05:34:57 07:56 7.56
171 34 BARON NICOLAS SH 71 05:35:56 07:58 7.54
172 25 ABAD LAMAS PATRICIA A2 1 05:37:26 08:00 7.51
173 287 MAROT ANNE SD 5 05:39:43 08:03 7.45
174 52 BOUCHA DYLAN SH 72 05:41:51 08:06 7.41
175 403 DOSSCHE TOM xxx   05:42:44 08:07 7.39
176 141 DUBOSCQ FRÉDÉRIC V1 59 05:44:50 08:10 7.34
177 377 VAN DEN EEDE NOELLE A2 2 05:45:38 08:11 7.33
178 47 BOEN OLIVIER V1 60 05:45:54 08:12 7.32
179 290 MASSON VINCENT V1 61 05:46:24 08:12 7.31
180 364 SUPPLY DENIS V2 26 05:47:25 08:14 7.29
181 108 DEJARDIN CHRISTELLE A1 8 05:47:37 08:14 7.29
182 261 LEGROS MYLÈNE A1 9 05:49:40 08:17 7.24
183 358 STATSYNS JEAN-FRANÇOIS V2 27 05:50:45 08:19 7.22
184 6 LIBOTTE VIRGINIE A1 10 05:56:48 08:27 7.10
185 7 SACRÉ BENOIT V3 2 05:56:49 08:27 7.10
186 368 THOMAS VALÉRIE A1 11 05:56:51 08:27 7.10
187 407 WILLIAMS ANDREW SH 73 05:59:30 08:31 7.04
188 148 EMPAIN DANIEL V1 62 06:01:36 08:34 7.00
189 29 AMOND LAURENT V2 28 06:01:51 08:34 7.00
190 50 BOSMANS LINN A1 12 06:02:26 08:35 6.99
191 385 VANDENHEULE FREDERIC V1 63 06:07:09 08:42 6.90
192 147 EGGENHUISEN TAMARA SD 6 06:12:38 08:50 6.80
193 120 DEMOULIN STEEVE V1 64 06:16:35 08:55 6.73
194 35 BASTIEN VIRGINIE A1 13 06:20:26 09:01 6.66
195 156 FORGEUR FRANÇOIS SH 74 06:22:16 09:03 6.63
196 303 NOËL LOÏC SH 75 06:23:28 09:05 6.60
197 125 DESART YVES V2 29 06:25:41 09:08 6.57
198 363 SULLI CÉDRIC V1 65 06:27:46 09:11 6.53
199 183 PROVOOST CATHERINE A1 14 06:29:52 09:14 6.50
200 301 MUNAUT ADELINE A1 15 06:35:16 09:22 6.41
201 58 BRAIVE PIERRE V1 66 06:35:20 09:22 6.41
202 17 LEGARDIEN AURORE A1 16 06:35:22 09:22 6.41
203 349 SEPULT FABRICE V1 67 06:36:01 09:23 6.40
204 55 BOULANGER NICOLAS V1 68 06:36:19 09:23 6.39
205 396 VERSCOORE DIMITRI V1 69 06:36:22 09:23 6.39
206 334 RESTEIGNE ANN SD 7 06:36:26 09:24 6.39
207 185 HOQUEZ ISABELLE A1 17 06:36:28 09:24 6.39
208 140 DUBLET SERGE V4 1 06:43:52 09:34 6.27
209 317 PIRONNET ERIC V2 30 06:49:55 09:43 6.18
               
Nos dernières videos
-->